Time;durP1;ratioP1;P1;durP2;ratioP2;P2;SDS_P1;SDS_P2;PMS_P1;PMS_P2;Temp;Humidity;BMP_temperature;BMP_pressure;BME280_temperature;BME280_humidity;BME280_pressure;Samples;Min_cycle;Max_cycle;Signal;HPM_P1;HPM_P2
2022/10/23 00:01:23;;;;;;;19.67;9.13;;;;;;;11.33;100.00;101232.03;5096210;28;20488;-78
2022/10/23 00:03:54;;;;;;;17.90;9.18;;;;;;;11.29;100.00;101226.28;5116858;28;20063;-78
2022/10/23 00:06:20;;;;;;;17.33;8.77;;;;;;;11.23;100.00;101221.75;5095869;28;20035;-79
2022/10/23 00:08:47;;;;;;;18.90;10.23;;;;;;;11.22;100.00;101225.44;5117924;27;20054;-78
2022/10/23 00:11:15;;;;;;;13.02;9.13;;;;;;;11.21;100.00;101223.00;5114959;28;20090;-79
2022/10/23 00:13:41;;;;;;;15.35;9.45;;;;;;;11.18;100.00;101211.66;5114746;28;20027;-78
2022/10/23 00:16:08;;;;;;;21.77;10.43;;;;;;;11.22;100.00;101213.94;5117634;28;20059;-79
2022/10/23 00:18:34;;;;;;;14.98;9.90;;;;;;;11.22;100.00;101217.41;5096741;28;20087;-78
2022/10/23 00:20:59;;;;;;;19.25;9.93;;;;;;;11.20;100.00;101216.00;5096339;28;20753;-78
2022/10/23 00:23:25;;;;;;;17.75;9.98;;;;;;;11.17;100.00;101211.88;5114356;28;20028;-79
2022/10/23 00:25:50;;;;;;;18.90;10.32;;;;;;;11.12;100.00;101201.81;5115238;27;20074;-79
2022/10/23 00:28:15;;;;;;;14.02;9.43;;;;;;;11.23;100.00;101220.91;5097023;28;20130;-78
2022/10/23 00:30:41;;;;;;;13.33;9.60;;;;;;;11.21;100.00;101218.47;5095766;28;20520;-79
2022/10/23 00:33:06;;;;;;;14.63;9.55;;;;;;;11.20;100.00;101213.31;5095599;28;20505;-78
2022/10/23 00:35:31;;;;;;;21.63;10.13;;;;;;;11.20;100.00;101219.50;5113712;28;20027;-78
2022/10/23 00:37:57;;;;;;;19.15;9.77;;;;;;;11.25;100.00;101227.72;5094483;28;20062;-79
2022/10/23 00:40:22;;;;;;;15.53;8.93;;;;;;;11.25;100.00;101217.00;5095112;28;20063;-79
2022/10/23 00:42:47;;;;;;;16.00;9.25;;;;;;;11.24;100.00;101201.16;5112951;28;20642;-79
2022/10/23 00:45:20;;;;;;;19.47;10.23;;;;;;;11.28;100.00;101213.94;5095176;28;20394;-79
2022/10/23 00:51:17;;;;;;;17.17;8.52;;;;;;;11.36;100.00;101188.78;5113613;28;20529;-78
2022/10/23 00:57:10;;;;;;;15.10;8.38;;;;;;;11.42;100.00;101207.50;5113076;28;20080;-78
2022/10/23 00:59:36;;;;;;;17.40;8.30;;;;;;;11.48;100.00;101219.22;5094128;28;20023;-78
2022/10/23 01:05:30;;;;;;;16.30;7.82;;;;;;;11.52;100.00;101200.88;5112291;28;20054;-78
2022/10/23 01:11:37;;;;;;;12.70;7.72;;;;;;;11.58;100.00;101192.84;5112411;28;20082;-79
2022/10/23 01:17:33;;;;;;;13.95;8.32;;;;;;;11.55;100.00;101201.25;5112069;28;20046;-79
2022/10/23 01:20:36;;;;;;;12.70;8.32;;;;;;;11.54;100.00;101191.59;5115251;28;20097;-79
2022/10/23 01:23:28;;;;;;;11.13;7.55;;;;;;;11.49;100.00;101178.84;5093607;28;20455;-78
2022/10/23 01:26:32;;;;;;;12.95;8.05;;;;;;;11.48;100.00;101193.25;5115195;27;20039;-79
2022/10/23 01:29:18;;;;;;;20.40;7.97;;;;;;;11.37;100.00;101188.56;5094523;28;20039;-79
2022/10/23 01:32:01;;;;;;;15.65;8.77;;;;;;;11.32;100.00;101198.28;5094301;28;20437;-79
2022/10/23 01:34:39;;;;;;;15.40;7.68;;;;;;;11.27;100.00;101190.84;5094033;28;20118;-79
2022/10/23 01:40:47;;;;;;;21.00;8.45;;;;;;;11.21;100.00;101172.94;5112203;28;20569;-79
2022/10/23 01:43:18;;;;;;;16.52;8.32;;;;;;;11.24;100.00;101180.56;5114772;28;20126;-79
2022/10/23 01:49:10;;;;;;;14.85;8.43;;;;;;;11.18;100.00;101149.28;5111779;28;20034;-79
2022/10/23 01:55:00;;;;;;;12.98;7.80;;;;;;;11.22;100.00;101155.84;5111964;28;20173;-79
2022/10/23 01:57:28;;;;;;;13.52;7.95;;;;;;;11.20;100.00;101146.41;5111883;28;20026;-79
2022/10/23 02:00:10;;;;;;;15.02;8.30;;;;;;;11.19;100.00;101148.25;5093970;28;20108;-78
2022/10/23 02:02:38;;;;;;;12.93;8.80;;;;;;;11.22;100.00;101155.03;5111591;28;20016;-79
2022/10/23 02:05:12;;;;;;;15.02;8.85;;;;;;;11.10;100.00;101147.66;5095959;28;20050;-79
2022/10/23 02:11:07;;;;;;;14.82;8.43;;;;;;;11.15;100.00;101142.50;5112461;28;20047;-79
2022/10/23 02:16:41;;;;;;;15.15;7.72;;;;;;;11.12;100.00;101153.63;5115941;28;19937;-78
2022/10/23 02:19:18;;;;;;;14.63;7.90;;;;;;;11.16;100.00;101151.34;5090255;28;20513;-79
2022/10/23 02:25:25;;;;;;;16.23;8.70;;;;;;;11.16;100.00;101144.16;5114616;28;20128;-79
2022/10/23 02:31:16;;;;;;;13.23;8.65;;;;;;;11.16;100.00;101141.47;5114873;28;20407;-79
2022/10/23 02:33:44;;;;;;;14.02;8.63;;;;;;;11.22;100.00;101142.47;5096189;28;20030;-79
2022/10/23 02:36:10;;;;;;;11.25;7.88;;;;;;;11.20;100.00;101139.19;5095627;28;20097;-79
2022/10/23 02:38:41;;;;;;;14.82;8.40;;;;;;;11.21;100.00;101131.97;5096232;28;20118;-79
2022/10/23 02:41:39;;;;;;;14.77;8.52;;;;;;;11.18;100.00;101120.66;5117529;28;20065;-79
2022/10/23 02:44:32;;;;;;;15.52;8.25;;;;;;;11.22;100.00;101106.84;5114213;28;20451;-79
2022/10/23 02:50:46;;;;;;;11.95;7.57;;;;;;;11.26;100.00;101089.34;5114600;28;20096;-79
2022/10/23 02:53:12;;;;;;;;;;;;;;;11.28;100.00;101084.63;5117753;28;20510;-79
2022/10/23 02:55:37;;;;;;;13.02;8.10;;;;;;;11.28;100.00;101082.75;5096116;28;19924;-79
2022/10/23 02:58:26;;;;;;;15.63;8.13;;;;;;;11.32;100.00;101070.59;5095210;28;20553;-79
2022/10/23 03:00:56;;;;;;;13.88;8.35;;;;;;;11.30;100.00;101075.34;5095848;28;20513;-79
2022/10/23 03:03:28;;;;;;;17.45;8.35;;;;;;;11.31;100.00;101068.94;5114227;28;20024;-79
2022/10/23 03:05:54;;;;;;;13.27;7.45;;;;;;;11.25;100.00;101047.53;5095119;28;20063;-79
2022/10/23 03:08:20;;;;;;;13.25;7.75;;;;;;;11.27;100.00;101054.31;5114009;28;20059;-79
2022/10/23 03:14:06;;;;;;;10.93;8.20;;;;;;;11.27;100.00;101048.97;5114403;28;20050;-79
2022/10/23 03:16:32;;;;;;;15.95;9.18;;;;;;;11.28;100.00;101047.97;5116599;28;20044;-79
2022/10/23 03:18:57;;;;;;;17.52;9.10;;;;;;;11.33;100.00;101053.50;5113827;28;20012;-79
2022/10/23 03:21:22;;;;;;;18.92;9.00;;;;;;;11.29;100.00;101044.25;5094939;28;20081;-79
2022/10/23 03:23:48;;;;;;;14.60;8.73;;;;;;;11.29;100.00;101038.91;5116980;28;20046;-79
2022/10/23 03:26:13;;;;;;;21.27;9.93;;;;;;;11.33;100.00;101044.63;5095303;28;20397;-79
2022/10/23 03:28:38;;;;;;;15.98;8.70;;;;;;;11.29;100.00;101022.00;5117987;27;20500;-79
2022/10/23 03:31:04;;;;;;;14.67;8.87;;;;;;;11.34;100.00;101031.03;5095578;28;20031;-78
2022/10/23 03:33:30;;;;;;;15.30;8.82;;;;;;;11.30;100.00;101031.69;5095418;28;20269;-79
2022/10/23 03:35:55;;;;;;;16.75;9.10;;;;;;;11.31;100.00;101026.13;5116267;28;20099;-79
2022/10/23 03:38:21;;;;;;;16.23;7.85;;;;;;;11.29;100.00;101024.69;5113416;28;20063;-79
2022/10/23 03:40:46;;;;;;;13.00;8.80;;;;;;;11.32;100.00;101025.06;5116729;28;20040;-79
2022/10/23 03:43:11;;;;;;;17.20;7.82;;;;;;;11.32;100.00;101022.41;5113468;28;20031;-79
2022/10/23 03:45:37;;;;;;;16.00;9.70;;;;;;;11.31;100.00;101019.94;5114637;28;20561;-79
2022/10/23 03:48:03;;;;;;;17.70;8.60;;;;;;;11.31;100.00;101018.09;5114852;28;20105;-79
2022/10/23 03:50:29;;;;;;;17.30;9.02;;;;;;;11.30;100.00;101012.94;5094774;28;20043;-79
2022/10/23 03:52:54;;;;;;;15.75;8.60;;;;;;;11.34;100.00;101016.84;5116289;28;20380;-79
2022/10/23 03:58:41;;;;;;;16.83;9.18;;;;;;;11.37;100.00;101016.41;5113560;28;20180;-79
2022/10/23 04:01:06;;;;;;;17.70;9.15;;;;;;;11.34;100.00;101006.13;5113277;28;20051;-79
2022/10/23 04:06:53;;;;;;;13.38;8.30;;;;;;;11.34;100.00;100988.19;5113662;28;20053;-79
2022/10/23 04:09:19;;;;;;;12.55;8.73;;;;;;;11.39;100.00;100990.22;5096293;28;20035;-79
2022/10/23 04:11:44;;;;;;;11.97;8.07;;;;;;;11.38;100.00;100978.69;5096352;28;20086;-79
2022/10/23 04:14:12;;;;;;;16.85;8.32;;;;;;;11.39;100.00;100985.69;5094462;28;20326;-79
2022/10/23 04:16:37;;;;;;;13.20;8.25;;;;;;;11.36;100.00;100978.09;5095018;28;20067;-79
2022/10/23 04:22:24;;;;;;;16.20;7.85;;;;;;;11.38;100.00;100973.34;5113047;28;20442;-79
2022/10/23 04:24:50;;;;;;;14.00;8.10;;;;;;;11.39;100.00;100974.97;5112784;28;20031;-79
2022/10/23 04:27:15;;;;;;;15.40;8.13;;;;;;;11.36;100.00;100986.13;5112739;28;20030;-79
2022/10/23 04:29:40;;;;;;;15.15;8.32;;;;;;;11.38;100.00;100988.59;5093979;28;20350;-79
2022/10/23 04:32:06;;;;;;;16.50;8.20;;;;;;;11.38;100.00;100977.88;5112750;28;20110;-79
2022/10/23 04:34:32;;;;;;;13.10;7.60;;;;;;;11.46;100.00;100978.44;5114780;28;20310;-79
2022/10/23 04:36:57;;;;;;;20.77;7.90;;;;;;;11.44;100.00;100975.16;5112525;28;20023;-79
2022/10/23 04:39:22;;;;;;;12.80;7.83;;;;;;;11.42;100.00;100971.88;5113199;28;20115;-79
2022/10/23 04:41:47;;;;;;;16.60;6.87;;;;;;;11.44;100.00;100974.34;5114938;28;20664;-79
2022/10/23 04:44:13;;;;;;;15.60;8.23;;;;;;;11.44;100.00;100977.81;5112512;28;20284;-79
2022/10/23 04:46:38;;;;;;;15.10;7.80;;;;;;;11.45;100.00;100981.31;5115880;27;20036;-79
2022/10/23 04:49:03;;;;;;;13.23;7.90;;;;;;;11.45;100.00;100968.75;5112711;28;20019;-79
2022/10/23 04:51:29;;;;;;;12.57;7.25;;;;;;;11.36;100.00;100963.88;5093460;28;20097;-79
2022/10/23 04:53:54;;;;;;;12.53;6.43;;;;;;;11.41;100.00;100967.56;5113276;28;20023;-79
2022/10/23 04:56:19;;;;;;;21.33;7.30;;;;;;;11.46;100.00;100972.25;5112361;28;20322;-79
2022/10/23 04:58:44;;;;;;;13.07;7.20;;;;;;;11.48;100.00;100962.97;5116268;28;20296;-79
2022/10/23 05:01:10;;;;;;;12.85;7.28;;;;;;;11.51;100.00;100966.25;5094240;28;20084;-79
2022/10/23 05:06:57;;;;;;;13.55;6.95;;;;;;;11.50;100.00;100960.06;5112947;28;20127;-79
2022/10/23 05:09:22;;;;;;;12.27;6.68;;;;;;;11.48;100.00;100954.13;5115552;28;20099;-78
2022/10/23 05:11:48;;;;;;;10.55;6.78;;;;;;;11.62;100.00;100952.16;5112333;28;20023;-79
2022/10/23 05:14:13;;;;;;;15.52;6.53;;;;;;;11.52;100.00;100947.28;5114289;28;20475;-78
2022/10/23 05:16:49;;;;;;;12.02;6.43;;;;;;;11.56;100.00;100948.47;5093777;28;20040;-79
2022/10/23 05:22:38;;;;;;;15.27;7.35;;;;;;;11.67;100.00;100949.66;5113748;28;20046;-79
2022/10/23 05:25:04;;;;;;;15.10;7.30;;;;;;;11.62;100.00;100949.50;5093825;28;20524;-79
2022/10/23 05:27:30;;;;;;;16.80;6.93;;;;;;;11.57;100.00;100938.63;5114965;27;20492;-79
2022/10/23 05:29:55;;;;;;;11.98;7.45;;;;;;;11.57;100.00;100950.16;5094754;28;20103;-78
2022/10/23 05:32:22;;;;;;;14.52;6.78;;;;;;;11.52;100.00;100935.75;5112853;28;20030;-79
2022/10/23 05:34:48;;;;;;;13.13;6.93;;;;;;;11.54;100.00;100933.66;5096370;28;20039;-78
2022/10/23 05:37:15;;;;;;;15.60;7.05;;;;;;;11.56;100.00;100931.59;5113069;28;20058;-79
2022/10/23 05:39:40;;;;;;;10.60;6.97;;;;;;;11.59;100.00;100939.22;5116192;28;20529;-79
2022/10/23 05:42:06;;;;;;;12.43;5.85;;;;;;;11.60;100.00;100940.84;5111798;28;20028;-79
2022/10/23 05:44:31;;;;;;;15.35;6.15;;;;;;;11.60;100.00;100935.50;5096632;28;20100;-79
2022/10/23 05:50:18;;;;;;;10.38;5.72;;;;;;;11.55;100.00;100930.78;5116000;28;20276;-79
2022/10/23 05:52:47;;;;;;;11.18;6.18;;;;;;;11.56;100.00;100921.69;5097406;28;20118;-79
2022/10/23 05:55:13;;;;;;;9.13;5.85;;;;;;;11.57;100.00;100926.06;5096984;28;20101;-79
2022/10/23 05:57:39;;;;;;;17.83;6.90;;;;;;;11.55;100.00;100928.09;5096329;28;20043;-79
2022/10/23 06:00:05;;;;;;;12.40;7.00;;;;;;;11.54;100.00;100931.00;5116006;28;20026;-79
2022/10/23 06:02:31;;;;;;;11.77;7.00;;;;;;;11.53;100.00;100926.69;5119701;28;20097;-79
2022/10/23 06:04:57;;;;;;;16.90;7.15;;;;;;;11.48;100.00;100920.13;5098192;28;20073;-79
2022/10/23 06:07:27;;;;;;;13.27;6.13;;;;;;;11.55;100.00;100928.09;5097425;28;20055;-79
2022/10/23 06:09:53;;;;;;;10.25;6.10;;;;;;;11.58;100.00;100914.31;5096874;28;20032;-79
2022/10/23 06:12:19;;;;;;;9.98;6.15;;;;;;;11.56;100.00;100899.47;5115069;28;20031;-79
2022/10/23 06:14:45;;;;;;;13.57;6.60;;;;;;;11.62;100.00;100910.13;5118439;27;20446;-79
2022/10/23 06:17:10;;;;;;;14.18;6.68;;;;;;;11.69;100.00;100908.22;5096567;28;20024;-79
2022/10/23 06:19:35;;;;;;;13.97;6.37;;;;;;;11.61;100.00;100902.31;5096704;28;20032;-79
2022/10/23 06:22:00;;;;;;;9.73;5.90;;;;;;;11.64;100.00;100912.59;5117824;28;20372;-79
2022/10/23 06:24:26;;;;;;;11.88;6.00;;;;;;;11.62;100.00;100903.97;5097004;28;20622;-80
2022/10/23 06:26:51;;;;;;;9.35;6.03;;;;;;;11.65;100.00;100903.53;5095834;28;20071;-79
2022/10/23 06:32:38;;;;;;;9.60;5.82;;;;;;;11.63;100.00;100894.88;5116090;28;20042;-79
2022/10/23 06:35:04;;;;;;;10.10;6.03;;;;;;;11.67;100.00;100898.75;5098892;28;20043;-79
2022/10/23 06:37:32;;;;;;;10.38;5.82;;;;;;;11.71;100.00;100886.56;5114694;28;20277;-79
2022/10/23 06:39:58;;;;;;;9.38;5.60;;;;;;;11.72;100.00;100890.88;5117333;27;20047;-79
2022/10/23 06:45:45;;;;;;;14.40;5.28;;;;;;;11.83;100.00;100875.97;5115542;28;20533;-79
2022/10/23 06:51:32;;;;;;;7.07;5.03;;;;;;;11.95;100.00;100868.84;5114612;28;20136;-80
2022/10/23 06:53:57;;;;;;;9.73;5.15;;;;;;;11.95;100.00;100856.28;5115685;28;20466;-81
2022/10/23 06:56:27;;;;;;;10.50;5.63;;;;;;;11.97;100.00;100867.59;5097366;28;20035;-80
2022/10/23 07:02:14;;;;;;;7.97;5.28;;;;;;;12.13;100.00;100879.56;5115918;28;20407;-80
2022/10/23 07:04:40;;;;;;;8.98;4.75;;;;;;;12.16;100.00;100878.31;5118064;28;20040;-80
2022/10/23 07:07:06;;;;;;;9.85;5.30;;;;;;;12.17;100.00;100869.22;5115549;28;20023;-80
2022/10/23 07:09:31;;;;;;;9.70;5.20;;;;;;;12.18;100.00;100871.69;5096125;28;20135;-80
2022/10/23 07:11:56;;;;;;;11.65;5.15;;;;;;;12.11;100.00;100854.84;5116292;28;20112;-80
2022/10/23 07:14:21;;;;;;;11.80;5.63;;;;;;;12.23;100.00;100874.50;5119972;27;20043;-79
2022/10/23 07:16:47;;;;;;;9.05;5.40;;;;;;;12.28;100.00;100865.78;5097305;28;20030;-79
2022/10/23 07:19:12;;;;;;;8.90;5.47;;;;;;;12.23;100.00;100858.44;5098181;28;20028;-80
2022/10/23 07:21:37;;;;;;;8.13;5.53;;;;;;;12.32;100.00;100858.94;5096826;28;20285;-80
2022/10/23 07:24:03;;;;;;;7.30;4.33;;;;;;;12.34;100.00;100856.84;5096742;28;20376;-81
2022/10/23 07:26:28;;;;;;;10.40;5.80;;;;;;;12.40;100.00;100863.97;5118472;27;20649;-80
2022/10/23 07:28:55;;;;;;;17.42;4.90;;;;;;;12.49;100.00;100856.47;5115110;28;20031;-80
2022/10/23 07:31:22;;;;;;;21.50;5.22;;;;;;;12.56;100.00;100857.19;5116031;28;20023;-81
2022/10/23 07:33:48;;;;;;;16.75;5.50;;;;;;;12.51;100.00;100844.47;5118089;28;20131;-80
2022/10/23 07:36:13;;;;;;;13.05;5.57;;;;;;;12.60;100.00;100850.31;5097628;28;20069;-80
2022/10/23 07:38:39;;;;;;;13.13;6.53;;;;;;;12.57;100.00;100845.41;5097181;28;20054;-80
2022/10/23 07:41:05;;;;;;;11.27;5.18;;;;;;;12.63;100.00;100839.94;5115568;28;20023;-80
2022/10/23 07:43:30;;;;;;;10.10;5.72;;;;;;;12.65;100.00;100827.13;5098169;28;20034;-80
2022/10/23 07:45:56;;;;;;;12.10;5.90;;;;;;;12.79;100.00;100845.75;5117859;28;20047;-81
2022/10/23 07:48:22;;;;;;;12.45;5.78;;;;;;;12.76;100.00;100833.59;5096839;28;20390;-79
2022/10/23 07:50:48;;;;;;;12.38;6.82;;;;;;;12.77;100.00;100831.75;5095946;28;20435;-80
2022/10/23 07:53:18;;;;;;;12.80;5.45;;;;;;;12.89;100.00;100832.56;5116091;28;20054;-80
2022/10/23 07:55:52;;;;;;;11.23;6.22;;;;;;;12.84;100.00;100833.28;5101334;28;20039;-80
2022/10/23 07:58:17;;;;;;;12.98;6.05;;;;;;;12.86;100.00;100828.50;5116947;28;20027;-80
2022/10/23 08:00:43;;;;;;;11.48;6.32;;;;;;;12.90;100.00;100831.53;5096911;28;20081;-80
2022/10/23 08:03:11;;;;;;;10.50;6.38;;;;;;;12.97;100.00;100837.59;5118302;28;20123;-80
2022/10/23 08:05:37;;;;;;;10.55;6.60;;;;;;;12.96;100.00;100826.06;5115816;28;20035;-80
2022/10/23 08:08:02;;;;;;;10.50;6.65;;;;;;;13.02;100.00;100829.72;5119130;28;20122;-79
2022/10/23 08:10:28;;;;;;;10.70;5.40;;;;;;;13.10;100.00;100828.56;5098942;28;20052;-80
2022/10/23 08:12:53;;;;;;;10.40;6.35;;;;;;;13.09;100.00;100821.53;5115590;28;20425;-79
2022/10/23 08:15:18;;;;;;;11.82;6.38;;;;;;;13.21;100.00;100823.22;5117090;28;20044;-80
2022/10/23 08:17:43;;;;;;;11.73;6.45;;;;;;;13.24;100.00;100825.44;5117751;28;20133;-80
2022/10/23 08:20:09;;;;;;;8.03;5.40;;;;;;;13.32;100.00;100827.81;5096239;28;20039;-81
2022/10/23 08:22:36;;;;;;;7.60;5.95;;;;;;;13.43;100.00;100826.16;5096966;28;20372;-80
2022/10/23 08:25:01;;;;;;;12.45;6.68;;;;;;;13.52;100.00;100827.44;5114928;28;20023;-80
2022/10/23 08:27:26;;;;;;;10.20;6.75;;;;;;;13.52;100.00;100822.06;5095549;28;20444;-80
2022/10/23 08:29:52;;;;;;;11.68;5.88;;;;;;;13.62;100.00;100819.63;5114429;28;20089;-81
2022/10/23 08:32:17;;;;;;;8.77;5.67;;;;;;;13.69;100.00;100824.06;5096521;28;20123;-80
2022/10/23 08:34:42;;;;;;;11.70;5.78;;;;;;;13.71;100.00;100822.78;5096154;28;20687;-80
2022/10/23 08:37:07;;;;;;;10.03;6.70;;;;;;;13.72;100.00;100815.53;5114302;28;20031;-80
2022/10/23 08:43:19;;;;;;;13.52;6.63;;;;;;;13.61;100.00;100804.56;5114005;28;20042;-78
2022/10/23 08:45:52;;;;;;;11.95;6.32;;;;;;;13.61;100.00;100811.81;5093656;28;20035;-79
2022/10/23 08:48:29;;;;;;;10.27;5.97;;;;;;;13.55;100.00;100796.59;5096773;28;20047;-80
2022/10/23 08:50:58;;;;;;;9.98;6.43;;;;;;;13.60;100.00;100805.63;5095382;28;20128;-80
2022/10/23 08:53:43;;;;;;;8.45;5.07;;;;;;;13.61;100.00;100803.75;5114277;28;20024;-81
2022/10/23 08:56:36;;;;;;;11.55;6.82;;;;;;;13.58;100.00;100786.19;5117760;27;20476;-80
2022/10/23 08:59:21;;;;;;;;;;;;;;;13.84;100.00;100795.63;5113933;28;20092;-80
2022/10/23 09:01:54;;;;;;;11.82;6.47;;;;;;;13.79;100.00;100795.53;5117399;28;19915;-80
2022/10/23 09:04:19;;;;;;;;;;;;;;;13.93;100.00;100786.16;5095424;28;20160;-80
2022/10/23 09:06:58;;;;;;;8.93;6.75;;;;;;;13.91;100.00;100793.66;5094878;28;20010;-80
2022/10/23 09:09:48;;;;;;;9.15;5.75;;;;;;;13.91;100.00;100785.59;5089264;28;20039;-80
2022/10/23 09:12:17;;;;;;;11.85;6.88;;;;;;;13.91;100.00;100780.22;5113439;28;20040;-79
2022/10/23 09:14:51;;;;;;;10.82;6.53;;;;;;;13.90;100.00;100767.00;5118087;27;20491;-79
2022/10/23 09:17:27;;;;;;;9.35;6.55;;;;;;;14.01;100.00;100765.34;5095469;28;20031;-80
2022/10/23 09:23:18;;;;;;;7.25;4.95;;;;;;;14.21;100.00;100758.50;5117254;28;20049;-81
2022/10/23 09:25:46;;;;;;;11.93;5.90;;;;;;;14.22;100.00;100753.94;5120366;28;20046;-79
2022/10/23 09:28:19;;;;;;;9.75;6.30;;;;;;;14.30;100.00;100755.41;5098434;28;20467;-80
2022/10/23 09:30:46;;;;;;;10.18;5.93;;;;;;;14.26;100.00;100753.19;5099425;27;20035;-80
2022/10/23 09:33:16;;;;;;;8.88;6.35;;;;;;;14.31;100.00;100746.28;5119428;28;20101;-81
2022/10/23 09:35:55;;;;;;;13.90;5.63;;;;;;;14.30;100.00;100740.09;5098192;28;20031;-80
2022/10/23 09:38:27;;;;;;;12.25;6.00;;;;;;;14.31;100.00;100740.91;5098192;28;20043;-80
2022/10/23 09:40:53;;;;;;;;;;;;;;;14.48;100.00;100737.22;5098700;28;20051;-80
2022/10/23 09:43:24;;;;;;;9.00;5.57;;;;;;;14.39;100.00;100725.16;5119526;28;19955;-79
2022/10/23 09:49:38;;;;;;;8.68;5.75;;;;;;;14.46;100.00;100730.47;5116794;28;20046;-78
2022/10/23 09:52:07;;;;;;;10.27;6.33;;;;;;;14.50;100.00;100724.34;5076771;28;20067;-78
2022/10/23 09:54:35;;;;;;;10.35;6.10;;;;;;;14.53;100.00;100728.41;5094546;28;20472;-79
2022/10/23 09:57:15;;;;;;;8.15;6.15;;;;;;;14.54;100.00;100717.41;5098063;28;20051;-79
2022/10/23 09:59:41;;;;;;;7.90;5.68;;;;;;;14.55;100.00;100719.03;5097902;28;20079;-77
2022/10/23 10:02:26;;;;;;;10.63;5.72;;;;;;;14.60;100.00;100709.41;5096585;28;20040;-79
2022/10/23 10:04:52;;;;;;;10.05;5.60;;;;;;;14.69;100.00;100710.63;5098093;28;20020;-77
2022/10/23 10:07:21;;;;;;;12.05;5.68;;;;;;;14.73;100.00;100701.81;5119201;28;20506;-79
2022/10/23 10:09:46;;;;;;;9.23;5.63;;;;;;;14.76;100.00;100695.97;5115623;28;20063;-80
2022/10/23 10:12:36;;;;;;;8.00;5.03;;;;;;;14.78;100.00;100687.66;5097580;28;20023;-79
2022/10/23 10:15:12;;;;;;;6.97;5.10;;;;;;;14.75;100.00;100683.59;5093538;28;20100;-79
2022/10/23 10:17:56;;;;;;;8.95;5.35;;;;;;;14.81;100.00;100684.47;5117363;28;20028;-79
2022/10/23 10:20:46;;;;;;;9.48;5.00;;;;;;;14.84;100.00;100667.81;5118833;28;20081;-78
2022/10/23 10:23:30;;;;;;;8.43;5.05;;;;;;;14.88;100.00;100664.38;5097490;28;20126;-80
2022/10/23 10:26:24;;;;;;;9.07;5.85;;;;;;;14.88;100.00;100660.88;5119283;28;20140;-79
2022/10/23 10:32:33;;;;;;;11.63;5.50;;;;;;;14.99;100.00;100667.22;5113727;28;20115;-80
2022/10/23 10:38:34;;;;;;;11.85;5.10;;;;;;;15.19;100.00;100656.75;5114968;28;20452;-80
2022/10/23 10:44:45;;;;;;;7.32;4.70;;;;;;;15.34;100.00;100658.84;5116440;28;20062;-79
2022/10/23 10:50:45;;;;;;;10.00;4.70;;;;;;;15.59;100.00;100651.06;5113153;28;20506;-79
2022/10/23 10:56:37;;;;;;;7.50;4.57;;;;;;;15.81;100.00;100634.88;5114558;28;20513;-78
2022/10/23 11:02:28;;;;;;;6.15;4.50;;;;;;;16.04;100.00;100622.97;5114567;28;20584;-78
2022/10/23 11:08:26;;;;;;;9.20;5.05;;;;;;;16.24;100.00;100617.78;5112306;28;20117;-79
2022/10/23 11:10:57;;;;;;;7.93;4.43;;;;;;;16.31;100.00;100625.66;5115862;28;20337;-80
2022/10/23 11:16:49;;;;;;;7.68;4.50;;;;;;;16.46;100.00;100616.84;5115686;28;20035;-79
2022/10/23 11:22:45;;;;;;;5.47;3.83;;;;;;;16.56;100.00;100606.16;5115179;28;20124;-80
2022/10/23 11:29:01;;;;;;;13.27;5.30;;;;;;;16.70;100.00;100597.34;5112928;28;20110;-81
2022/10/23 11:35:29;;;;;;;7.75;3.55;;;;;;;16.86;100.00;100583.97;5114546;28;20043;-78
2022/10/23 11:41:33;;;;;;;7.03;4.60;;;;;;;17.06;100.00;100561.59;5113978;28;20035;-79
2022/10/23 11:47:32;;;;;;;8.88;4.38;;;;;;;17.19;100.00;100564.66;5117612;28;20038;-80
2022/10/23 11:53:31;;;;;;;10.70;4.13;;;;;;;17.30;100.00;100543.88;5112482;28;20515;-79
2022/10/23 11:59:26;;;;;;;9.30;3.92;;;;;;;17.28;100.00;100544.13;5113814;28;20127;-80
2022/10/23 12:01:53;;;;;;;7.93;4.45;;;;;;;17.22;100.00;100539.00;5095762;28;20016;-81
2022/10/23 12:07:42;;;;;;;9.10;3.80;;;;;;;17.25;100.00;100560.88;5114952;28;20411;-82
2022/10/23 12:10:24;;;;;;;4.85;3.85;;;;;;;17.20;100.00;100535.75;5113361;28;20509;-82
2022/10/23 12:12:56;;;;;;;6.88;3.80;;;;;;;17.34;100.00;100536.84;5117369;28;20119;-82
2022/10/23 12:15:22;;;;;;;5.10;4.18;;;;;;;17.28;100.00;100533.31;5113376;28;20020;-80
2022/10/23 12:17:49;;;;;;;6.28;3.78;;;;;;;17.28;100.00;100521.72;5116290;28;20491;-79
2022/10/23 12:23:55;;;;;;;8.88;4.15;;;;;;;17.49;100.00;100519.88;5115792;28;20034;-80
2022/10/23 12:30:21;;;;;;;9.45;3.70;;;;;;;17.46;100.00;100506.91;5113818;28;20084;-80
2022/10/23 12:33:23;;;;;;;7.78;3.70;;;;;;;17.45;100.00;100503.38;5073026;28;20039;-81
2022/10/23 12:36:28;;;;;;;6.40;3.80;;;;;;;17.54;100.00;100498.25;5094127;28;20039;-80
2022/10/23 12:38:57;;;;;;;3.33;2.80;;;;;;;17.56;100.00;100490.69;5094564;28;20024;-80
2022/10/23 12:41:27;;;;;;;8.82;3.67;;;;;;;17.57;100.00;100486.88;5114733;28;20120;-79
2022/10/23 12:47:17;;;;;;;4.93;3.45;;;;;;;17.65;100.00;100483.69;5110517;28;20059;-80
2022/10/23 12:49:48;;;;;;;10.00;3.38;;;;;;;17.59;100.00;100480.13;5094136;28;20040;-79
2022/10/23 12:56:01;;;;;;;6.60;3.33;;;;;;;17.72;100.00;100472.63;5112188;28;20038;-78
2022/10/23 13:01:48;;;;;;;6.22;3.15;;;;;;;17.75;100.00;100450.44;5113044;28;20046;-80
2022/10/23 13:07:42;;;;;;;5.35;3.40;;;;;;;17.68;100.00;100433.69;5110408;28;20277;-80
2022/10/23 13:13:29;;;;;;;8.93;3.50;;;;;;;17.74;100.00;100422.56;5113703;28;20096;-77
2022/10/23 13:19:26;;;;;;;5.85;3.10;;;;;;;17.77;100.00;100421.22;5113138;28;20062;-79
2022/10/23 13:25:25;;;;;;;8.82;3.65;;;;;;;17.79;100.00;100403.63;5111936;28;20057;-78
2022/10/23 13:31:12;;;;;;;9.95;3.20;;;;;;;17.91;100.00;100396.03;5112476;28;20047;-78
2022/10/23 13:37:30;;;;;;;5.85;3.00;;;;;;;17.93;100.00;100380.38;5110296;28;20043;-77
2022/10/23 13:43:19;;;;;;;5.68;2.92;;;;;;;18.01;100.00;100362.75;5111950;28;20400;-78
2022/10/23 13:49:06;;;;;;;6.15;3.20;;;;;;;18.02;100.00;100369.78;5112500;28;20097;-78
2022/10/23 13:54:53;;;;;;;5.10;2.60;;;;;;;18.03;100.00;100378.72;5112364;28;20046;-80
2022/10/23 14:00:42;;;;;;;5.15;3.20;;;;;;;18.04;100.00;100378.44;5111763;28;20038;-79
2022/10/23 14:06:31;;;;;;;6.07;3.00;;;;;;;18.04;100.00;100370.31;5113534;28;20089;-80
2022/10/23 14:12:18;;;;;;;5.85;3.40;;;;;;;18.01;100.00;100361.94;5115453;28;20078;-80
2022/10/23 14:18:08;;;;;;;5.25;3.05;;;;;;;18.06;100.00;100364.63;5115859;28;20043;-79
2022/10/23 14:23:56;;;;;;;5.05;3.22;;;;;;;18.06;100.00;100356.50;5112894;28;20419;-78
2022/10/23 14:29:43;;;;;;;5.82;3.60;;;;;;;17.96;100.00;100349.25;5115027;28;20043;-78
2022/10/23 14:35:30;;;;;;;6.03;3.08;;;;;;;17.93;100.00;100360.63;5113297;28;20039;-79
2022/10/23 14:41:17;;;;;;;5.93;3.42;;;;;;;17.81;100.00;100369.00;5114681;28;20108;-78
2022/10/23 14:47:05;;;;;;;7.25;3.15;;;;;;;17.79;100.00;100370.38;5115302;28;20053;-80
2022/10/23 14:52:52;;;;;;;8.60;3.25;;;;;;;17.70;100.00;100348.50;5115206;28;20059;-79
2022/10/23 14:58:39;;;;;;;4.82;2.72;;;;;;;17.60;100.00;100349.25;5114832;28;20054;-80
2022/10/23 15:04:26;;;;;;;7.93;3.70;;;;;;;17.56;100.00;100337.38;5112230;28;20066;-78
2022/10/23 15:10:13;;;;;;;5.25;3.47;;;;;;;17.57;100.00;100322.78;5114002;28;20526;-79
2022/10/23 15:16:05;;;;;;;7.28;3.15;;;;;;;17.64;100.00;100328.72;5112272;28;20046;-79
2022/10/23 15:21:52;;;;;;;7.03;3.35;;;;;;;17.60;100.00;100316.81;5114321;28;20170;-78
2022/10/23 15:27:38;;;;;;;5.85;3.28;;;;;;;17.53;100.00;100310.88;5113685;28;20054;-77
2022/10/23 15:33:26;;;;;;;7.47;3.25;;;;;;;17.46;100.00;100307.66;5113585;28;20357;-80
2022/10/23 15:39:17;;;;;;;3.88;2.95;;;;;;;17.37;100.00;100314.72;5113511;28;20506;-79